Terminal Aerodrome Forecast
Issued by NWS Charleston, SC

Home | Current Version | Previous Version | Text Only | Print | Product List | Glossary On
Versions: 1 2 3 4 5 6 7 8 9 10 11 12 13 14 15 16 17 18 19 20 21 22 23 24 25 26 27 28
000
FTUS42 KCHS 031507 AAA
TAFSAV
TAF AMD
KSAV 031507Z 0315/0412 11004KT 1SM BR OVC002
     FM031600 12004KT 4SM BR BKN007
     FM031800 16009KT P6SM SCT015 BKN050
     FM040000 18006KT 5SM BR SCT005
     FM040500 18005KT 1SM BR OVC002=

USA.gov is the U.S. government's official web portal to all federal, state and local government web resources and services.